Time;durP1;ratioP1;P1;durP2;ratioP2;P2;SDS_P1;SDS_P2;PMS_P1;PMS_P2;Temp;Humidity;BMP_temperature;BMP_pressure;BME280_temperature;BME280_humidity;BME280_pressure;Samples;Min_cycle;Max_cycle;Signal;HPM_P1;HPM_P2
2022/05/10 00:02:12;;;;;;;11.57;6.68;;;;;;;14.73;64.53;101181.44;5044058;28;20048;-77
2022/05/10 00:04:39;;;;;;;9.15;4.53;;;;;;;14.31;62.81;101129.66;5046986;28;20024;-78
2022/05/10 00:07:05;;;;;;;13.25;5.80;;;;;;;14.66;63.67;101179.72;5026042;28;20037;-78
2022/05/10 00:09:30;;;;;;;7.35;4.22;;;;;;;14.54;62.77;101119.91;5042169;28;20048;-77
2022/05/10 00:11:58;;;;;;;11.48;5.25;;;;;;;14.67;62.11;101164.72;5040147;28;20079;-77
2022/05/10 00:14:27;;;;;;;10.55;5.15;;;;;;;14.56;62.27;101136.63;5039589;28;20057;-79
2022/05/10 00:16:54;;;;;;;8.35;4.85;;;;;;;14.46;62.52;101132.22;5041538;28;20086;-78
2022/05/10 00:19:22;;;;;;;8.50;4.40;;;;;;;14.53;62.19;101122.50;5054920;28;20472;-77
2022/05/10 00:21:49;;;;;;;6.93;4.88;;;;;;;14.63;60.85;101144.50;5039620;28;20381;-77
2022/05/10 00:24:16;;;;;;;12.82;5.95;;;;;;;14.75;60.26;101149.75;5046163;28;20047;-79
2022/05/10 00:26:41;;;;;;;8.02;3.90;;;;;;;15.05;60.98;101179.50;5044282;28;20044;-78
2022/05/10 00:29:07;;;;;;;14.38;4.28;;;;;;;15.08;59.56;101169.78;5043582;28;20020;-78
2022/05/10 00:31:34;;;;;;;9.52;4.63;;;;;;;14.96;59.25;101133.75;5050337;28;20487;-78
2022/05/10 00:34:00;;;;;;;10.63;5.20;;;;;;;14.99;59.86;101140.78;5036120;28;20072;-80
2022/05/10 00:36:27;;;;;;;11.38;4.63;;;;;;;14.84;59.94;101120.59;5044345;28;20376;-77
2022/05/10 00:38:53;;;;;;;6.30;3.78;;;;;;;15.01;59.48;101143.38;5038537;28;20563;-78
2022/05/10 00:41:28;;;;;;;13.07;5.13;;;;;;;15.01;59.49;101132.81;5025283;28;20024;-77
2022/05/10 00:44:02;;;;;;;8.55;4.18;;;;;;;14.96;60.07;101111.69;5047594;28;20105;-76
2022/05/10 00:46:38;;;;;;;8.98;4.85;;;;;;;15.11;60.00;101161.84;5040815;28;20068;-76
2022/05/10 00:49:22;;;;;;;8.13;3.53;;;;;;;15.22;58.86;101151.19;5044376;28;20540;-79
2022/05/10 00:52:14;;;;;;;14.70;4.20;;;;;;;15.03;59.21;101129.31;5047949;28;20044;-76
2022/05/10 00:55:07;;;;;;;14.05;4.07;;;;;;;15.48;59.49;101163.34;5038646;28;20079;-76
2022/05/10 00:58:03;;;;;;;6.00;3.80;;;;;;;15.20;58.87;101127.41;5038215;28;20523;-76
2022/05/10 01:00:36;;;;;;;8.98;3.75;;;;;;;15.41;58.24;101168.66;5070819;28;20092;-78
2022/05/10 01:03:54;;;;;;;14.23;5.07;;;;;;;15.24;58.35;101130.00;5063769;28;20055;-78
2022/05/10 01:06:51;;;;;;;8.90;4.63;;;;;;;15.19;59.15;101114.19;5047321;28;20052;-77
2022/05/10 01:09:48;;;;;;;7.93;3.22;;;;;;;15.37;57.92;101136.97;5078699;28;20033;-76
2022/05/10 01:12:46;;;;;;;6.07;4.25;;;;;;;15.62;58.60;101158.81;5077740;28;20585;-77
2022/05/10 01:15:23;;;;;;;11.55;3.80;;;;;;;15.37;58.03;101126.38;5078391;28;20051;-79
2022/05/10 01:17:53;;;;;;;8.43;4.20;;;;;;;15.33;58.79;101122.00;5084228;28;20040;-77
2022/05/10 01:20:24;;;;;;;6.28;2.78;;;;;;;15.32;58.51;101117.63;5070151;28;20024;-77
2022/05/10 01:23:38;;;;;;;12.65;4.82;;;;;;;15.49;60.14;101139.50;5075915;28;20032;-77
2022/05/10 01:26:32;;;;;;;6.38;3.38;;;;;;;15.33;59.79;101109.66;5051348;28;20041;-77
2022/05/10 01:29:04;;;;;;;8.73;4.00;;;;;;;15.60;58.67;101150.00;5055729;28;20024;-78
2022/05/10 01:31:42;;;;;;;9.30;4.13;;;;;;;15.40;57.81;101105.19;5062824;28;20556;-79
2022/05/10 01:34:20;;;;;;;8.75;3.17;;;;;;;15.73;58.25;101126.97;5069175;28;20036;-79
2022/05/10 01:37:05;;;;;;;8.07;3.65;;;;;;;15.58;58.79;101114.75;5046829;28;20047;-81
2022/05/10 01:39:42;;;;;;;5.80;3.05;;;;;;;15.81;58.58;101146.31;5065962;28;20052;-80
2022/05/10 01:42:37;;;;;;;6.75;4.50;;;;;;;15.87;58.41;101143.59;5061488;28;20071;-80
2022/05/10 01:45:06;;;;;;;18.63;3.45;;;;;;;15.58;59.13;101112.09;5079471;28;20032;-80
2022/05/10 01:47:48;;;;;;;8.45;4.47;;;;;;;15.85;59.24;101149.78;5070292;28;20071;-80
2022/05/10 01:50:35;;;;;;;5.60;3.05;;;;;;;15.76;61.97;101140.19;5059926;28;20073;-79
2022/05/10 01:53:12;;;;;;;25.80;4.68;;;;;;;15.61;62.25;101131.44;5060467;28;20073;-80
2022/05/10 01:55:45;;;;;;;6.35;3.40;;;;;;;15.49;62.17;101101.59;5076983;28;20034;-80
2022/05/10 01:58:14;;;;;;;9.40;4.30;;;;;;;15.38;62.84;101092.00;5073905;28;20058;-79
2022/05/10 02:00:45;;;;;;;7.22;3.22;;;;;;;15.32;65.27;101093.81;5070172;28;20037;-79
2022/05/10 02:03:25;;;;;;;7.13;4.07;;;;;;;15.52;63.99;101120.09;5062566;28;20375;-79
2022/05/10 02:05:55;;;;;;;8.65;3.25;;;;;;;15.37;64.19;101113.16;5069591;28;20045;-77
2022/05/10 02:09:02;;;;;;;5.03;3.33;;;;;;;15.43;63.70;101104.28;5051718;28;20031;-77
2022/05/10 02:11:28;;;;;;;10.43;3.67;;;;;;;15.27;64.07;101091.22;5042625;28;20032;-77
2022/05/10 02:14:14;;;;;;;7.53;4.72;;;;;;;15.40;65.37;101121.06;5079648;28;20024;-77
2022/05/10 02:16:46;;;;;;;5.45;3.67;;;;;;;15.42;64.82;101132.50;5057486;28;20036;-77
2022/05/10 02:19:27;;;;;;;8.55;3.83;;;;;;;15.28;66.12;101114.13;5065893;28;20495;-79
2022/05/10 02:21:59;;;;;;;8.85;5.07;;;;;;;15.38;66.97;101129.03;5057127;28;20036;-78
2022/05/10 02:24:51;;;;;;;10.10;3.75;;;;;;;15.23;64.31;101078.03;5072698;28;20047;-77
2022/05/10 02:27:50;;;;;;;7.80;4.72;;;;;;;15.26;64.34;101102.66;5075534;28;20035;-76
2022/05/10 02:30:20;;;;;;;9.05;4.55;;;;;;;15.06;64.74;101092.25;5067962;28;20074;-77
2022/05/10 02:33:08;;;;;;;8.45;4.65;;;;;;;15.26;65.75;101115.00;5063827;28;20074;-76
2022/05/10 02:35:36;;;;;;;5.80;3.88;;;;;;;15.16;65.21;101088.66;5068626;28;20041;-80
2022/05/10 02:38:04;;;;;;;6.95;3.88;;;;;;;15.26;65.18;101123.81;5062172;28;20028;-79
2022/05/10 02:40:29;;;;;;;6.80;3.80;;;;;;;15.04;65.46;101072.91;5065504;28;20016;-78
2022/05/10 02:42:55;;;;;;;7.65;4.50;;;;;;;15.38;63.83;101128.13;5071192;28;20059;-81
2022/05/10 02:45:22;;;;;;;8.27;4.47;;;;;;;15.39;63.90;101099.03;5077979;28;20118;-78
2022/05/10 02:47:49;;;;;;;6.57;3.78;;;;;;;15.26;63.63;101099.16;5067059;28;20135;-78
2022/05/10 02:50:29;;;;;;;5.78;3.42;;;;;;;15.37;64.23;101097.31;5070219;28;20101;-79
2022/05/10 02:53:00;;;;;;;5.95;3.95;;;;;;;15.65;64.63;101137.59;5049489;28;20652;-79
2022/05/10 02:55:30;;;;;;;15.20;5.47;;;;;;;15.38;65.27;101094.66;5052307;28;20145;-80
2022/05/10 02:58:00;;;;;;;8.35;4.03;;;;;;;15.20;65.00;101100.97;5062631;28;20039;-80
2022/05/10 03:00:34;;;;;;;6.22;3.72;;;;;;;15.26;65.40;101121.19;5071978;28;20045;-79
2022/05/10 03:03:09;;;;;;;8.05;4.80;;;;;;;15.31;65.17;101137.91;5078509;28;20052;-79
2022/05/10 03:05:36;;;;;;;12.98;4.55;;;;;;;15.26;65.03;101126.47;5081236;28;20070;-78
2022/05/10 03:08:02;;;;;;;7.53;4.55;;;;;;;15.36;64.12;101137.88;5066714;28;20040;-78
2022/05/10 03:10:27;;;;;;;6.80;4.40;;;;;;;15.58;65.50;101157.94;5064433;28;20024;-79
2022/05/10 03:12:53;;;;;;;7.60;4.63;;;;;;;15.12;64.93;101118.63;5058752;28;20104;-79
2022/05/10 03:15:20;;;;;;;10.40;4.47;;;;;;;15.05;65.14;101113.41;5078783;28;20066;-79
2022/05/10 03:17:45;;;;;;;14.10;4.85;;;;;;;15.01;65.92;101112.56;5056101;28;20468;-80
2022/05/10 03:20:12;;;;;;;6.18;4.40;;;;;;;15.11;65.07;101143.34;5078318;28;24910;-79
2022/05/10 03:22:39;;;;;;;11.32;4.80;;;;;;;14.89;65.50;101134.69;5085241;28;20438;-78
2022/05/10 03:25:05;;;;;;;19.27;5.07;;;;;;;14.98;65.38;101118.75;5072651;28;20058;-77
2022/05/10 03:27:34;;;;;;;9.63;6.10;;;;;;;14.82;66.27;101127.69;5053913;28;20036;-78
2022/05/10 03:30:02;;;;;;;10.23;5.57;;;;;;;14.78;66.22;101126.81;5084168;28;20045;-78
2022/05/10 03:32:30;;;;;;;14.55;6.97;;;;;;;14.52;66.83;101121.63;5079727;28;20032;-80
2022/05/10 03:34:58;;;;;;;19.20;6.35;;;;;;;14.44;66.92;101139.25;5067315;28;20032;-78
2022/05/10 03:37:29;;;;;;;9.90;5.20;;;;;;;14.50;66.19;101136.59;5052950;28;20104;-78
2022/05/10 03:39:55;;;;;;;9.52;5.60;;;;;;;14.43;67.43;101169.19;5064810;28;20352;-77
2022/05/10 03:42:21;;;;;;;16.92;6.35;;;;;;;14.35;66.79;101142.84;5060241;28;20040;-79
2022/05/10 03:44:52;;;;;;;12.68;5.07;;;;;;;14.42;66.29;101151.63;5079471;28;20052;-76
2022/05/10 03:47:20;;;;;;;16.25;4.97;;;;;;;14.60;66.02;101150.66;5064965;28;20036;-77
2022/05/10 03:49:56;;;;;;;13.95;5.63;;;;;;;14.99;65.62;101197.16;5055543;28;20057;-77
2022/05/10 03:52:22;;;;;;;11.07;4.72;;;;;;;14.71;66.25;101187.63;5060762;28;20048;-78
2022/05/10 03:54:54;;;;;;;8.82;5.35;;;;;;;14.82;66.04;101169.03;5075692;28;20105;-77
2022/05/10 03:57:19;;;;;;;8.10;4.95;;;;;;;14.78;66.11;101149.72;5062904;28;20186;-78
2022/05/10 03:59:46;;;;;;;8.85;4.72;;;;;;;14.78;66.02;101187.56;5041336;28;20504;-78
2022/05/10 04:02:25;;;;;;;7.75;5.28;;;;;;;14.72;66.29;101166.44;5013103;28;20030;-77
2022/05/10 04:04:51;;;;;;;9.98;5.78;;;;;;;14.60;66.50;101160.38;4997098;28;20503;-78
2022/05/10 04:07:17;;;;;;;7.03;4.93;;;;;;;14.75;67.04;101202.56;5021871;28;20133;-77
2022/05/10 04:09:52;;;;;;;9.75;4.90;;;;;;;14.81;67.04;101194.59;5023143;28;20037;-78
2022/05/10 04:12:19;;;;;;;6.80;6.10;;;;;;;14.86;66.81;101190.16;5038359;28;23547;-78
2022/05/10 04:14:46;;;;;;;11.93;4.95;;;;;;;14.66;66.69;101166.50;5021563;28;20381;-78
2022/05/10 04:17:12;;;;;;;12.88;5.38;;;;;;;14.78;67.21;101203.41;5020895;28;20469;-79
2022/05/10 04:19:37;;;;;;;5.40;3.65;;;;;;;14.92;66.34;101184.84;5017321;28;20029;-78
2022/05/10 04:22:21;;;;;;;7.43;4.82;;;;;;;14.99;66.48;101198.91;5040360;28;20037;-77
2022/05/10 04:24:48;;;;;;;9.68;5.50;;;;;;;14.92;66.56;101168.13;5039970;28;20463;-76
2022/05/10 04:27:20;;;;;;;11.25;4.95;;;;;;;15.03;65.49;101178.63;5017892;28;20058;-76
2022/05/10 04:29:46;;;;;;;9.07;4.97;;;;;;;14.64;66.96;101178.84;5033355;28;20135;-77
2022/05/10 04:32:13;;;;;;;8.77;4.63;;;;;;;14.81;66.32;101176.09;5013416;28;20206;-77
2022/05/10 04:34:39;;;;;;;7.82;5.30;;;;;;;14.72;67.52;101155.00;5039899;28;20020;-77
2022/05/10 04:37:04;;;;;;;8.40;5.47;;;;;;;14.71;67.13;101175.28;5036520;28;20044;-78
2022/05/10 04:41:24;;;;;;;10.23;5.35;;;;;;;14.64;67.06;101167.41;5011569;28;20045;-78
2022/05/10 04:42:17;;;;;;;10.70;4.78;;;;;;;14.81;65.75;101173.47;5031870;28;20116;-76
2022/05/10 04:44:43;;;;;;;11.20;5.75;;;;;;;14.90;65.64;101176.06;5026869;28;20045;-77
2022/05/10 04:47:26;;;;;;;10.10;5.90;;;;;;;15.00;64.96;101163.66;5038147;28;20025;-76
2022/05/10 04:49:51;;;;;;;7.57;4.93;;;;;;;14.74;67.50;101167.31;5039220;28;20064;-78
2022/05/10 04:52:17;;;;;;;12.80;6.78;;;;;;;14.67;67.26;101173.53;5039220;28;20059;-78
2022/05/10 04:54:44;;;;;;;6.22;4.60;;;;;;;14.73;68.06;101189.34;5011983;28;20055;-78
2022/05/10 04:57:09;;;;;;;8.80;5.82;;;;;;;14.49;68.66;101170.94;5023922;28;20425;-78
2022/05/10 04:59:35;;;;;;;15.50;5.65;;;;;;;14.57;68.04;101170.06;5029004;28;20052;-78
2022/05/10 05:02:01;;;;;;;15.00;6.22;;;;;;;14.90;67.43;101189.28;5051929;28;20028;-79
2022/05/10 05:04:26;;;;;;;12.30;5.88;;;;;;;15.07;67.54;101177.72;5059713;28;20029;-78
2022/05/10 05:06:52;;;;;;;12.43;6.68;;;;;;;15.02;68.90;101159.25;5057195;28;20071;-80
2022/05/10 05:09:18;;;;;;;9.45;6.45;;;;;;;14.80;69.40;101157.59;5056915;28;20047;-76
2022/05/10 05:11:45;;;;;;;11.75;8.10;;;;;;;14.94;69.07;101166.38;5037002;28;20116;-78
2022/05/10 05:14:11;;;;;;;25.08;10.25;;;;;;;14.95;70.63;101173.38;5036949;28;20020;-79
2022/05/10 05:16:37;;;;;;;12.88;8.23;;;;;;;14.95;70.97;101176.91;5065144;28;20028;-77
2022/05/10 05:19:05;;;;;;;20.00;7.80;;;;;;;15.10;71.69;101198.84;5037639;28;20488;-78
2022/05/10 05:21:30;;;;;;;23.98;9.50;;;;;;;14.65;71.64;101185.84;5014360;28;20037;-80
2022/05/10 05:23:56;;;;;;;19.10;10.00;;;;;;;14.88;71.92;101208.66;5050823;28;20051;-81
2022/05/10 05:26:24;;;;;;;11.93;6.70;;;;;;;14.84;72.24;101177.84;5059492;28;20059;-80
2022/05/10 05:28:51;;;;;;;13.52;6.70;;;;;;;14.73;72.21;101152.38;5024872;28;20365;-80
2022/05/10 05:31:17;;;;;;;17.38;7.25;;;;;;;14.67;72.41;101148.88;5052716;28;20045;-78
2022/05/10 05:33:43;;;;;;;15.77;6.95;;;;;;;14.94;72.93;101156.66;5050588;28;20049;-77
2022/05/10 05:36:42;;;;;;;19.00;7.63;;;;;;;15.23;73.15;101208.47;5052712;28;20462;-77
2022/05/10 05:39:21;;;;;;;17.50;9.63;;;;;;;15.09;73.63;101194.44;5058977;28;20036;-77
2022/05/10 05:41:48;;;;;;;15.20;9.18;;;;;;;14.89;73.84;101166.38;5058889;28;20468;-77
2022/05/10 05:44:14;;;;;;;11.98;7.60;;;;;;;14.86;73.61;101168.16;5058647;28;20032;-79
2022/05/10 05:47:01;;;;;;;15.73;7.60;;;;;;;14.80;75.16;101166.44;5079371;28;20337;-78
2022/05/10 05:49:28;;;;;;;16.25;7.40;;;;;;;14.96;74.60;101196.28;5057457;28;20044;-77
2022/05/10 05:52:02;;;;;;;15.15;7.40;;;;;;;14.92;74.92;101211.28;5057982;28;20135;-78
2022/05/10 05:54:28;;;;;;;12.90;6.95;;;;;;;15.14;74.99;101212.03;5060135;28;20039;-79
2022/05/10 05:57:06;;;;;;;10.80;7.13;;;;;;;15.04;75.17;101185.69;5072569;28;20044;-79
2022/05/10 05:59:33;;;;;;;23.38;7.60;;;;;;;15.14;75.13;101187.38;5050560;28;20120;-79
2022/05/10 06:02:00;;;;;;;10.10;8.05;;;;;;;15.13;75.57;101183.84;5050176;28;20022;-79
2022/05/10 06:04:30;;;;;;;9.70;7.72;;;;;;;15.16;76.48;101173.25;5051391;28;20041;-80
2022/05/10 06:06:59;;;;;;;14.90;7.20;;;;;;;15.14;75.44;101176.78;5017768;28;20041;-79
2022/05/10 06:09:26;;;;;;;15.73;8.48;;;;;;;15.18;74.25;101220.84;5041015;28;20067;-77
2022/05/10 06:11:52;;;;;;;13.50;7.50;;;;;;;15.37;74.32;101221.59;5042120;28;20124;-78
2022/05/10 06:14:18;;;;;;;17.02;8.27;;;;;;;15.39;73.53;101223.34;5009667;28;20025;-77
2022/05/10 06:16:44;;;;;;;15.30;9.15;;;;;;;15.15;73.02;101195.31;5019555;28;20440;-78
2022/05/10 06:19:11;;;;;;;12.60;7.13;;;;;;;14.95;73.15;101195.41;5019525;28;20106;-79
2022/05/10 06:21:38;;;;;;;19.33;8.63;;;;;;;15.17;73.52;101196.16;5047307;28;20044;-77
2022/05/10 06:24:05;;;;;;;18.25;7.18;;;;;;;14.78;73.94;101194.63;5043116;28;20047;-78
2022/05/10 06:26:36;;;;;;;10.25;6.80;;;;;;;15.12;74.35;101208.50;5013944;28;20041;-78
2022/05/10 06:29:03;;;;;;;24.50;14.05;;;;;;;15.24;74.11;101204.94;5027093;28;20036;-78
2022/05/10 06:31:30;;;;;;;18.95;13.45;;;;;;;15.08;73.94;101204.16;5024692;28;20453;-78
2022/05/10 06:33:55;;;;;;;11.60;9.00;;;;;;;14.99;74.02;101197.16;5016243;28;20057;-80
2022/05/10 06:36:21;;;;;;;19.25;8.68;;;;;;;15.03;74.37;101208.59;5025635;28;20057;-78
2022/05/10 06:38:47;;;;;;;9.85;6.00;;;;;;;15.18;73.84;101220.84;5026912;28;20098;-79
2022/05/10 06:41:12;;;;;;;12.98;8.98;;;;;;;14.94;74.08;101213.94;5036857;28;20033;-77
2022/05/10 06:43:38;;;;;;;11.55;7.20;;;;;;;15.18;74.69;101221.72;5010591;28;20053;-78
2022/05/10 06:46:14;;;;;;;15.82;7.15;;;;;;;14.95;74.89;101194.53;5026067;28;20071;-77
2022/05/10 06:48:39;;;;;;;11.02;6.63;;;;;;;15.13;73.51;101199.72;5040637;28;20489;-79
2022/05/10 06:51:07;;;;;;;16.55;7.45;;;;;;;15.43;73.69;101247.09;5030839;28;20067;-79
2022/05/10 06:53:33;;;;;;;10.30;7.47;;;;;;;15.08;74.09;101206.81;5041359;28;20120;-79
2022/05/10 06:56:16;;;;;;;9.07;6.07;;;;;;;15.33;73.11;101212.78;5044387;28;20020;-80
2022/05/10 06:58:42;;;;;;;8.48;6.47;;;;;;;15.27;73.88;101222.56;5029046;28;20068;-79
2022/05/10 07:01:19;;;;;;;15.80;7.15;;;;;;;15.60;73.72;101203.78;5058825;28;20090;-80
2022/05/10 07:03:50;;;;;;;25.25;7.68;;;;;;;15.39;74.04;101211.88;5080650;28;20102;-79
2022/05/10 07:06:23;;;;;;;12.85;7.97;;;;;;;15.57;74.21;101232.06;5070209;28;20040;-79
2022/05/10 07:08:56;;;;;;;;;;;;;;;15.28;74.98;101193.44;5065923;28;20113;-80
2022/05/10 07:11:26;;;;;;;10.50;6.57;;;;;;;15.48;75.51;101195.09;5064056;28;22262;-84
2022/05/10 07:13:51;;;;;;;16.42;8.27;;;;;;;15.09;78.48;101221.75;5057719;28;20036;-81
2022/05/10 07:16:19;;;;;;;11.20;6.65;;;;;;;15.04;79.29;101198.91;5083067;28;20047;-81
2022/05/10 07:18:46;;;;;;;12.07;6.28;;;;;;;14.98;80.60;101242.97;5072017;28;20048;-80
2022/05/10 07:21:18;;;;;;;12.43;6.20;;;;;;;14.27;82.34;101196.53;5083697;28;20059;-80
2022/05/10 07:23:45;;;;;;;31.75;9.70;;;;;;;14.34;83.14;101209.72;5074406;28;20039;-80
2022/05/10 07:26:10;;;;;;;11.38;7.80;;;;;;;14.22;84.75;101251.97;5074513;28;20127;-81
2022/05/10 07:28:39;;;;;;;12.32;7.03;;;;;;;14.12;85.05;101215.94;5076195;28;20099;-76
2022/05/10 07:31:05;;;;;;;12.77;7.55;;;;;;;14.35;84.93;101216.75;5085841;28;20373;-75
2022/05/10 07:33:32;;;;;;;20.15;7.63;;;;;;;14.42;85.91;101273.09;5082098;28;20044;-75
2022/05/10 07:38:43;;;;;;;13.35;6.93;;;;;;;14.12;87.23;101229.13;5081361;28;20060;-76
2022/05/10 07:41:11;;;;;;;12.68;8.60;;;;;;;13.91;87.70;101224.75;5079312;28;20048;-77
2022/05/10 07:43:50;;;;;;;16.98;7.47;;;;;;;13.77;89.25;101227.38;5082766;28;20032;-76
2022/05/10 07:46:25;;;;;;;11.65;7.47;;;;;;;14.04;89.65;101230.88;5088363;28;20044;-76
2022/05/10 07:48:55;;;;;;;15.05;7.43;;;;;;;13.96;89.55;101240.59;5082302;28;20043;-76
2022/05/10 07:51:21;;;;;;;35.50;9.45;;;;;;;14.02;90.05;101272.22;5082305;28;20047;-75
2022/05/10 07:53:47;;;;;;;15.30;8.43;;;;;;;14.23;90.07;101276.59;5059584;28;20056;-75
2022/05/10 07:56:12;;;;;;;9.40;7.30;;;;;;;14.12;89.34;101268.72;5076283;28;20078;-75
2022/05/10 07:58:55;;;;;;;11.85;6.97;;;;;;;14.00;90.81;101274.88;5070826;28;20028;-75
2022/05/10 08:01:22;;;;;;;11.15;7.55;;;;;;;13.87;91.09;101234.41;5083502;28;20081;-75
2022/05/10 08:03:48;;;;;;;14.13;7.57;;;;;;;14.17;91.23;101260.78;5076231;28;20067;-76
2022/05/10 08:06:23;;;;;;;10.15;6.63;;;;;;;14.23;90.73;101250.22;5085229;28;21659;-77
2022/05/10 08:08:50;;;;;;;9.82;7.05;;;;;;;14.15;90.46;101271.34;5078615;28;20094;-74
2022/05/10 08:11:17;;;;;;;14.07;7.82;;;;;;;14.11;90.79;101272.22;5077999;28;20024;-75
2022/05/10 08:13:52;;;;;;;27.02;7.28;;;;;;;13.94;91.13;101233.53;5085108;28;20020;-74
2022/05/10 08:16:18;;;;;;;8.95;7.25;;;;;;;14.15;90.91;101268.72;5094850;28;20070;-75
2022/05/10 08:18:48;;;;;;;12.63;8.85;;;;;;;14.29;91.52;101271.34;5087529;28;20044;-76
2022/05/10 08:21:18;;;;;;;10.10;6.90;;;;;;;14.13;90.75;101249.34;5086585;28;20131;-76
2022/05/10 08:23:56;;;;;;;10.50;8.07;;;;;;;14.26;90.86;101231.75;5073677;28;20055;-76
2022/05/10 08:26:25;;;;;;;19.20;8.43;;;;;;;14.80;90.23;101272.13;5061549;28;20044;-75
2022/05/10 08:29:21;;;;;;;18.98;8.55;;;;;;;14.55;90.11;101221.13;5084474;28;20088;-76
2022/05/10 08:31:48;;;;;;;12.68;9.35;;;;;;;14.94;89.87;101266.78;5070374;28;20035;-76
2022/05/10 08:34:15;;;;;;;14.38;8.80;;;;;;;14.76;89.42;101230.75;5090344;28;20036;-76
2022/05/10 08:36:44;;;;;;;14.77;7.78;;;;;;;14.50;89.90;101230.78;5087217;28;20064;-75
2022/05/10 08:39:11;;;;;;;12.73;6.88;;;;;;;14.46;90.06;101229.91;5071257;28;20749;-75
2022/05/10 08:42:13;;;;;;;12.75;8.63;;;;;;;14.67;89.26;101234.28;5085273;28;20049;-76
2022/05/10 08:45:02;;;;;;;14.85;8.18;;;;;;;14.72;89.17;101234.25;5082111;28;20098;-77
2022/05/10 08:47:29;;;;;;;16.52;8.25;;;;;;;14.63;89.17;101216.69;5075570;28;20044;-76
2022/05/10 08:50:01;;;;;;;8.75;6.80;;;;;;;14.73;89.54;101265.97;5082864;28;20097;-76
2022/05/10 08:52:34;;;;;;;13.45;7.65;;;;;;;14.80;89.77;101252.72;5084428;28;20372;-76
2022/05/10 08:55:00;;;;;;;;;;;;;;;14.89;89.97;101276.47;5092044;28;20071;-76
2022/05/10 08:58:03;;;;;;;15.45;7.88;;;;;;;14.52;90.12;101235.19;5072741;28;20390;-76
2022/05/10 09:00:41;;;;;;;14.70;8.00;;;;;;;14.73;89.86;101247.47;5058947;28;20040;-76
2022/05/10 09:04:00;;;;;;;10.35;7.35;;;;;;;14.77;89.07;101243.03;5062501;28;20036;-75
2022/05/10 09:07:01;;;;;;;10.10;7.82;;;;;;;14.75;89.15;101239.56;5073654;28;20040;-76
2022/05/10 09:09:37;;;;;;;12.27;8.73;;;;;;;15.23;88.13;101234.03;5070498;28;20024;-76
2022/05/10 09:12:28;;;;;;;10.93;8.13;;;;;;;15.50;88.15;101281.47;5056839;28;20041;-76
2022/05/10 09:15:07;;;;;;;16.27;8.70;;;;;;;15.29;87.77;101289.50;5052103;28;20135;-76
2022/05/10 09:17:58;;;;;;;15.77;8.43;;;;;;;15.10;87.14;101243.78;5067914;28;20050;-75
2022/05/10 09:20:24;;;;;;;24.75;9.23;;;;;;;15.41;87.13;101242.72;5084060;28;20114;-76
2022/05/10 09:23:04;;;;;;;10.98;8.52;;;;;;;15.62;86.84;101302.53;5068955;28;20103;-76
2022/05/10 09:25:39;;;;;;;13.68;7.60;;;;;;;15.45;87.09;101282.38;5076608;28;20544;-76
2022/05/10 09:28:40;;;;;;;9.98;8.27;;;;;;;15.71;86.73;101291.06;5068100;28;20036;-75
2022/05/10 09:37:14;;;;;;;9.68;6.80;;;;;;;15.80;84.79;101282.16;5069185;28;20046;-76
2022/05/10 09:39:49;;;;;;;9.85;7.38;;;;;;;15.77;84.73;101251.31;5060185;28;20603;-76
2022/05/10 09:42:27;;;;;;;11.32;6.97;;;;;;;15.90;83.62;101251.22;5069291;28;20036;-76
2022/05/10 09:45:05;;;;;;;13.20;6.75;;;;;;;15.83;84.01;101240.69;5070340;28;20032;-76
2022/05/10 09:47:55;;;;;;;11.65;7.28;;;;;;;16.28;84.29;101293.22;5071966;28;20039;-76
2022/05/10 09:50:29;;;;;;;13.93;7.85;;;;;;;16.07;82.34;101240.47;5055764;28;20029;-76
2022/05/10 09:53:26;;;;;;;14.57;7.72;;;;;;;16.22;84.44;101230.63;5058336;28;20017;-76
2022/05/10 09:56:03;;;;;;;16.73;8.00;;;;;;;16.56;85.34;101283.25;5072812;28;20044;-76
2022/05/10 09:58:38;;;;;;;10.43;8.52;;;;;;;16.46;86.05;101258.63;5043744;28;20583;-75
2022/05/10 10:01:12;;;;;;;13.20;8.27;;;;;;;16.63;85.98;101284.94;5055462;28;20044;-76
2022/05/10 10:03:42;;;;;;;10.85;7.45;;;;;;;16.67;85.59;101267.22;5032980;28;20036;-75
2022/05/10 10:06:23;;;;;;;8.18;6.18;;;;;;;16.53;83.58;101247.94;5060968;28;20048;-76
2022/05/10 10:08:57;;;;;;;11.10;7.57;;;;;;;16.50;81.65;101242.69;5071756;28;20033;-76
2022/05/10 10:11:29;;;;;;;7.13;5.90;;;;;;;16.76;79.77;101277.69;5053538;28;20197;-76
2022/05/10 10:14:06;;;;;;;8.07;6.70;;;;;;;16.77;79.59;101238.84;5064486;28;20021;-76
2022/05/10 10:16:53;;;;;;;10.88;6.30;;;;;;;16.92;81.32;101249.28;5068187;28;20040;-76
2022/05/10 10:19:57;;;;;;;8.65;6.15;;;;;;;16.87;81.16;101216.66;5056210;28;20523;-76
2022/05/10 10:22:42;;;;;;;11.07;7.47;;;;;;;16.89;82.04;101233.41;5043434;28;20055;-76
2022/05/10 10:28:38;;;;;;;8.57;6.40;;;;;;;17.26;79.36;101255.00;5071548;28;20043;-76
2022/05/10 10:31:06;;;;;;;12.82;6.15;;;;;;;17.32;78.99;101264.66;5057395;28;20048;-76
2022/05/10 10:33:57;;;;;;;11.45;5.63;;;;;;;17.41;78.88;101276.91;5071494;28;20107;-75
2022/05/10 10:36:29;;;;;;;15.75;5.65;;;;;;;17.55;77.67;101260.78;5083941;28;20066;-74
2022/05/10 10:39:33;;;;;;;9.10;5.80;;;;;;;17.26;76.99;101227.63;5056992;28;20040;-75
2022/05/10 10:42:11;;;;;;;;;;;;;;;17.49;76.88;101262.63;5052121;28;20480;-76
2022/05/10 10:45:05;;;;;;;6.85;4.55;;;;;;;17.31;72.19;101236.38;5069504;28;20007;-76
2022/05/10 10:48:03;;;;;;;9.57;5.68;;;;;;;17.37;72.72;101212.41;5073496;28;20496;-76
2022/05/10 10:50:33;;;;;;;14.63;6.40;;;;;;;17.36;73.29;101213.31;5077671;28;20419;-75
2022/05/10 10:53:09;;;;;;;11.93;5.57;;;;;;;17.68;72.34;101209.28;5072883;28;20051;-75
2022/05/10 10:58:13;;;;;;;14.68;4.28;;;;;;;18.03;71.20;101214.00;4193584;27;24869964;-76
2022/05/10 11:01:01;;;;;;;7.75;3.47;;;;;;;17.82;70.67;101193.16;5062126;28;20041;-76
2022/05/10 11:03:53;;;;;;;8.18;4.75;;;;;;;18.02;71.44;101224.66;5059089;28;20048;-76
2022/05/10 11:06:33;;;;;;;12.77;3.95;;;;;;;18.49;70.59;101230.84;5061981;28;20096;-76
2022/05/10 11:09:12;;;;;;;6.50;3.10;;;;;;;17.55;69.10;101189.13;5063668;28;20048;-76
2022/05/10 11:11:56;;;;;;;9.52;4.63;;;;;;;18.44;68.47;101208.81;5068167;28;20033;-77
2022/05/10 11:14:51;;;;;;;7.13;3.70;;;;;;;18.67;68.77;101232.28;5070689;28;20132;-76
2022/05/10 11:17:24;;;;;;;11.23;4.50;;;;;;;19.00;68.06;101235.16;5070750;28;20130;-76
2022/05/10 11:20:16;;;;;;;13.73;6.65;;;;;;;18.98;66.87;101193.50;5076942;28;20037;-76
2022/05/10 11:23:10;;;;;;;7.68;5.25;;;;;;;19.59;69.51;101231.13;5054579;28;20619;-76
2022/05/10 11:26:01;;;;;;;9.05;4.57;;;;;;;19.23;66.08;101232.88;5049846;28;20040;-76
2022/05/10 11:29:05;;;;;;;8.20;4.72;;;;;;;18.91;68.32;101177.72;5062058;28;20049;-76
2022/05/10 11:32:18;;;;;;;10.27;5.60;;;;;;;18.65;68.33;101157.84;5074011;28;20060;-77
2022/05/10 11:35:15;;;;;;;17.25;9.35;;;;;;;19.33;67.46;101174.97;5079179;28;20064;-76
2022/05/10 11:38:02;;;;;;;19.65;10.13;;;;;;;19.79;67.00;101160.56;5057549;28;20044;-76
2022/05/10 11:40:45;;;;;;;15.63;8.82;;;;;;;19.30;66.22;101167.94;5054979;28;20039;-76
2022/05/10 11:43:30;;;;;;;19.30;7.47;;;;;;;19.87;65.54;101203.84;5054292;28;20589;-76
2022/05/10 11:46:31;;;;;;;14.35;8.02;;;;;;;19.93;66.84;101147.75;5055614;28;20045;-76
2022/05/10 11:49:24;;;;;;;11.07;6.40;;;;;;;19.04;61.67;101163.25;5061437;28;20049;-76
2022/05/10 11:52:08;;;;;;;15.13;5.50;;;;;;;18.73;61.02;101147.03;5061270;28;20055;-76
2022/05/10 11:54:47;;;;;;;17.30;7.68;;;;;;;19.28;61.63;101148.47;5048390;28;20079;-76
2022/05/10 11:57:20;;;;;;;19.85;6.28;;;;;;;20.21;62.21;101181.63;5071267;28;20796;-76
2022/05/10 11:59:46;;;;;;;;;;;;;;;19.90;60.19;101137.19;5097344;28;20071;-75
2022/05/10 12:02:31;;;;;;;7.80;5.30;;;;;;;19.35;62.00;101136.75;5091979;28;20358;-76
2022/05/10 12:05:21;;;;;;;6.43;3.97;;;;;;;18.72;63.02;101175.44;5092988;28;20372;-76
2022/05/10 12:08:03;;;;;;;7.90;4.78;;;;;;;19.00;61.62;101136.75;5090232;28;20036;-76
2022/05/10 12:10:33;;;;;;;12.13;5.97;;;;;;;19.52;61.73;101167.41;5075915;28;20480;-77
2022/05/10 12:13:03;;;;;;;13.27;5.05;;;;;;;19.70;60.65;101159.00;5078746;28;20032;-76